Time;durP1;ratioP1;P1;durP2;ratioP2;P2;SDS_P1;SDS_P2;PMS_P1;PMS_P2;Temp;Humidity;BMP_temperature;BMP_pressure;BME280_temperature;BME280_humidity;BME280_pressure;Samples;Min_cycle;Max_cycle;Signal;HPM_P1;HPM_P2
2023/10/10 00:00:57;;;;;;;18.70;8.68;;;13.90;86.70;;;;;;5011401;28;20111;-66
2023/10/10 00:03:24;;;;;;;19.30;9.77;;;13.90;86.70;;;;;;5026859;28;20072;-67
2023/10/10 00:05:57;;;;;;;16.55;9.35;;;13.90;86.70;;;;;;5028818;28;20100;-66
2023/10/10 00:08:30;;;;;;;14.70;9.52;;;13.90;86.70;;;;;;5029196;28;20412;-66
2023/10/10 00:10:55;;;;;;;17.40;9.93;;;13.90;86.70;;;;;;5029146;28;20049;-66
2023/10/10 00:13:23;;;;;;;16.73;10.18;;;13.90;86.80;;;;;;5028423;28;20050;-67
2023/10/10 00:15:55;;;;;;;22.45;10.25;;;14.00;86.70;;;;;;5028754;28;20563;-66
2023/10/10 00:18:22;;;;;;;19.48;11.15;;;14.00;86.80;;;;;;5027656;28;20057;-66
2023/10/10 00:21:07;;;;;;;20.38;11.13;;;14.00;86.80;;;;;;5030236;28;20065;-66
2023/10/10 00:23:47;;;;;;;20.88;11.35;;;14.00;86.90;;;;;;5011157;28;20129;-66
2023/10/10 00:26:14;;;;;;;25.73;12.80;;;14.00;86.90;;;;;;5015604;28;20057;-67
2023/10/10 00:28:44;;;;;;;22.95;13.38;;;14.00;86.90;;;;;;5006045;28;20049;-67
2023/10/10 00:31:15;;;;;;;25.60;13.07;;;14.00;86.90;;;;;;5028300;28;20060;-65
2023/10/10 00:33:41;;;;;;;19.80;12.68;;;14.00;86.90;;;;;;5030175;28;20111;-65
2023/10/10 00:36:20;;;;;;;24.65;13.68;;;14.00;87.00;;;;;;5042127;28;20046;-66
2023/10/10 00:38:49;;;;;;;26.25;14.10;;;14.00;87.00;;;;;;5036293;28;20076;-67
2023/10/10 00:41:15;;;;;;;25.15;14.23;;;14.00;87.10;;;;;;5035339;28;20095;-66
2023/10/10 00:43:41;;;;;;;28.92;14.73;;;14.00;87.10;;;;;;5021732;28;20201;-66
2023/10/10 00:46:11;;;;;;;32.42;14.90;;;14.00;87.20;;;;;;5025756;28;20120;-65
2023/10/10 00:48:40;;;;;;;24.65;14.02;;;14.00;87.20;;;;;;5011719;28;20046;-66
2023/10/10 00:51:33;;;;;;;21.95;13.40;;;14.00;87.20;;;;;;5006349;28;20115;-67
2023/10/10 00:54:16;;;;;;;20.48;12.63;;;14.10;87.20;;;;;;5030018;28;20045;-67
2023/10/10 00:56:44;;;;;;;22.70;13.45;;;14.10;87.20;;;;;;5018357;28;20112;-67
2023/10/10 00:59:11;;;;;;;23.13;12.57;;;14.10;87.30;;;;;;5014752;28;20041;-67
2023/10/10 01:01:40;;;;;;;22.98;13.02;;;14.10;87.30;;;;;;5026646;28;20099;-66
2023/10/10 01:04:09;;;;;;;21.63;12.70;;;14.10;87.20;;;;;;5017448;28;20464;-67
2023/10/10 01:06:35;;;;;;;25.02;12.98;;;14.10;87.30;;;;;;5010338;28;20527;-67
2023/10/10 01:09:19;;;;;;;25.40;13.50;;;14.10;87.30;;;;;;5010828;28;20057;-67
2023/10/10 01:11:48;;;;;;;22.77;12.00;;;14.20;87.40;;;;;;5030152;28;20057;-66
2023/10/10 01:14:18;;;;;;;20.33;11.40;;;14.20;87.40;;;;;;5009349;28;20151;-65
2023/10/10 01:16:47;;;;;;;24.90;12.40;;;14.20;87.40;;;;;;5003626;28;20488;-67
2023/10/10 01:19:17;;;;;;;25.08;12.77;;;14.20;87.40;;;;;;5024627;28;20135;-67
2023/10/10 01:21:50;;;;;;;22.60;12.27;;;14.20;87.40;;;;;;5010736;28;20060;-67
2023/10/10 01:24:18;;;;;;;20.05;10.65;;;14.20;87.40;;;;;;5017552;28;20041;-67
2023/10/10 01:26:50;;;;;;;24.63;12.32;;;14.20;87.30;;;;;;5015463;28;20041;-66
2023/10/10 01:29:25;;;;;;;26.60;13.07;;;14.20;87.30;;;;;;5029099;28;20045;-67
2023/10/10 01:31:58;;;;;;;24.67;12.73;;;14.20;87.50;;;;;;5035883;28;20046;-67
2023/10/10 01:34:33;;;;;;;24.77;13.32;;;14.30;87.50;;;;;;5030426;28;20053;-67
2023/10/10 01:37:20;;;;;;;21.55;12.70;;;14.30;87.50;;;;;;5020938;28;20052;-67
2023/10/10 01:40:15;;;;;;;24.70;12.75;;;14.30;87.50;;;;;;5017102;28;20041;-66
2023/10/10 01:42:53;;;;;;;28.20;12.93;;;14.20;87.50;;;;;;5028363;28;20132;-67
2023/10/10 01:45:20;;;;;;;27.67;13.68;;;14.20;87.60;;;;;;5029304;28;20056;-67
2023/10/10 01:48:02;;;;;;;24.65;13.70;;;14.30;87.60;;;;;;5029825;28;20053;-67
2023/10/10 01:50:30;;;;;;;25.92;14.05;;;14.20;87.60;;;;;;5012129;28;20049;-67
2023/10/10 01:53:00;;;;;;;27.80;12.95;;;14.30;87.60;;;;;;5030148;28;20064;-67
2023/10/10 01:55:26;;;;;;;24.10;14.35;;;14.30;87.60;;;;;;5010455;28;20060;-66
2023/10/10 01:57:57;;;;;;;34.28;14.60;;;14.30;87.50;;;;;;5020389;28;20495;-67
2023/10/10 02:00:26;;;;;;;31.92;14.25;;;14.20;87.50;;;;;;5024701;28;20053;-67
2023/10/10 02:02:56;;;;;;;22.90;13.32;;;14.20;87.50;;;;;;5029373;28;20132;-66
2023/10/10 02:08:03;;;;;;;29.60;14.10;;;14.20;87.60;;;;;;5029163;28;20054;-67
2023/10/10 02:10:30;;;;;;;33.70;15.20;;;14.20;87.60;;;;;;5029517;28;20104;-67
2023/10/10 02:12:59;;;;;;;24.88;13.95;;;14.20;87.60;;;;;;5029718;28;20053;-66
2023/10/10 02:15:32;;;;;;;29.00;13.95;;;14.20;87.50;;;;;;5029912;28;20096;-66
2023/10/10 02:18:04;;;;;;;29.05;13.57;;;14.20;87.50;;;;;;5028946;28;20401;-66
2023/10/10 02:23:09;;;;;;;32.30;15.10;;;14.20;87.50;;;;;;5026792;28;20065;-67
2023/10/10 02:28:08;;;;;;;25.35;13.65;;;14.10;87.50;;;;;;5015076;28;20061;-66
2023/10/10 02:30:34;;;;;;;32.55;13.85;;;14.00;87.50;;;;;;5029154;28;20111;-67
2023/10/10 02:33:30;;;;;;;35.75;15.20;;;14.00;87.50;;;;;;5014994;28;20122;-66
2023/10/10 02:35:56;;;;;;;26.52;13.63;;;14.00;87.50;;;;;;5028994;28;20496;-66
2023/10/10 02:38:33;;;;;;;31.23;14.45;;;14.00;87.60;;;;;;5020705;28;20045;-66
2023/10/10 02:46:35;;;;;;;36.97;15.90;;;13.90;87.70;;;;;;5029318;28;20054;-67
2023/10/10 02:49:09;;;;;;;33.05;15.52;;;13.90;87.60;;;;;;5028939;28;20053;-67
2023/10/10 02:51:48;;;;;;;39.08;15.70;;;13.90;87.60;;;;;;5029339;28;20053;-67
2023/10/10 02:54:32;;;;;;;35.20;15.10;;;13.90;87.50;;;;;;5012055;28;20128;-67
2023/10/10 02:57:46;;;;;;;37.05;16.33;;;13.90;87.70;;;;;;5021455;28;20049;-66
2023/10/10 02:59:59;;;;;;;35.97;16.45;;;13.90;87.70;;;;;;5021178;28;20061;-65
2023/10/10 03:02:30;;;;;;;34.72;15.98;;;13.80;87.70;;;;;;5028601;28;20420;-67
2023/10/10 03:07:29;;;;;;;33.67;16.95;;;13.90;87.90;;;;;;5028698;28;20567;-67
2023/10/10 03:12:38;;;;;;;37.42;17.05;;;13.90;88.00;;;;;;5024325;28;20071;-66
2023/10/10 03:18:18;;;;;;;36.72;17.45;;;13.90;88.20;;;;;;5032154;28;20052;-67
2023/10/10 03:23:18;;;;;;;36.17;17.42;;;13.90;88.30;;;;;;5025695;28;20509;-67
2023/10/10 03:28:21;;;;;;;34.40;16.80;;;13.90;88.30;;;;;;5032313;28;20099;-67
2023/10/10 03:33:35;;;;;;;33.90;17.17;;;13.90;88.30;;;;;;5021588;28;20111;-66
2023/10/10 03:36:23;;;;;;;34.72;16.95;;;13.90;88.40;;;;;;5031964;28;20045;-66
2023/10/10 05:23:29;;;;;;;40.67;17.42;;;14.00;88.40;;;;;;5031979;28;20081;-67
2023/10/10 05:25:45;;;;;;;69.97;33.47;;;14.20;88.90;;;;;;5017974;28;20057;-66
2023/10/10 05:28:10;;;;;;;67.53;33.28;;;14.20;88.90;;;;;;5005965;28;20369;-67
2023/10/10 05:30:45;;;;;;;63.95;33.40;;;14.20;89.00;;;;;;5028650;28;20041;-67
2023/10/10 05:33:19;;;;;;;63.20;33.85;;;14.20;88.90;;;;;;5010887;28;20069;-66
2023/10/10 05:35:48;;;;;;;66.07;34.15;;;14.20;89.00;;;;;;5005353;28;20045;-67
2023/10/10 05:38:19;;;;;;;73.72;36.88;;;14.30;88.90;;;;;;5019195;28;20484;-67
2023/10/10 05:40:47;;;;;;;59.55;29.52;;;14.30;89.00;;;;;;5029625;28;20061;-68
2023/10/10 05:43:16;;;;;;;57.42;29.58;;;14.30;89.00;;;;;;5012320;28;20071;-67
2023/10/10 05:45:45;;;;;;;65.32;31.65;;;14.30;89.00;;;;;;5029609;28;20052;-67
2023/10/10 05:48:12;;;;;;;72.28;31.52;;;14.30;89.00;;;;;;5018534;28;20481;-66
2023/10/10 05:50:40;;;;;;;67.05;31.65;;;14.30;89.00;;;;;;5020256;28;20046;-66
2023/10/10 05:53:07;;;;;;;73.90;31.65;;;14.40;88.80;;;;;;5026643;28;20148;-67
2023/10/10 05:55:37;;;;;;;79.72;32.58;;;14.40;88.90;;;;;;5025802;28;20077;-66
2023/10/10 05:58:04;;;;;;;71.93;31.35;;;14.40;88.80;;;;;;5026847;28;20127;-65
2023/10/10 06:00:41;;;;;;;75.45;31.13;;;14.30;88.70;;;;;;5024498;28;20057;-67
2023/10/10 06:03:07;;;;;;;76.57;32.90;;;14.30;88.70;;;;;;5022693;28;20056;-66
2023/10/10 06:05:36;;;;;;;74.70;32.95;;;14.30;88.70;;;;;;5026290;28;20049;-65
2023/10/10 06:08:02;;;;;;;90.13;35.08;;;14.30;88.70;;;;;;5027491;28;20068;-66
2023/10/10 06:10:34;;;;;;;79.72;36.10;;;14.30;88.70;;;;;;5028858;28;20049;-67
2023/10/10 06:13:06;;;;;;;88.80;40.88;;;14.30;88.70;;;;;;5032307;28;20045;-66
2023/10/10 06:15:33;;;;;;;89.38;39.25;;;14.30;88.70;;;;;;5029329;28;20578;-66
2023/10/10 06:18:13;;;;;;;92.72;41.03;;;14.30;88.70;;;;;;5028576;28;20049;-67
2023/10/10 06:20:42;;;;;;;101.20;41.70;;;14.30;88.80;;;;;;5029458;28;20045;-67
2023/10/10 06:23:11;;;;;;;101.03;43.10;;;14.30;88.90;;;;;;5012337;28;20049;-66
2023/10/10 06:25:38;;;;;;;115.30;44.13;;;14.30;88.80;;;;;;5009522;28;20293;-66
2023/10/10 06:28:22;;;;;;;110.40;46.83;;;14.30;88.90;;;;;;5022132;28;20053;-66
2023/10/10 06:30:54;;;;;;;108.10;47.25;;;14.30;88.90;;;;;;5029419;28;20053;-67
2023/10/10 06:33:27;;;;;;;126.85;48.72;;;14.30;89.00;;;;;;5029410;28;20052;-67
2023/10/10 06:41:42;;;;;;;108.80;47.60;;;14.40;89.10;;;;;;5028844;28;20164;-67
2023/10/10 06:44:14;;;;;;;114.25;49.80;;;14.40;89.10;;;;;;5029222;28;20049;-67
2023/10/10 06:46:48;;;;;;;114.38;47.92;;;14.40;89.20;;;;;;5031484;28;20060;-67
2023/10/10 06:49:13;;;;;;;103.72;47.80;;;14.50;89.10;;;;;;5015511;28;20489;-67
2023/10/10 06:51:39;;;;;;;97.20;46.28;;;14.50;89.10;;;;;;5033344;28;20060;-67
2023/10/10 06:54:09;;;;;;;96.38;45.97;;;14.50;89.10;;;;;;5026681;28;20042;-67
2023/10/10 06:56:45;;;;;;;88.18;42.92;;;14.50;89.10;;;;;;5023430;28;20049;-66
2023/10/10 06:59:20;;;;;;;89.60;41.97;;;14.60;89.10;;;;;;5033193;28;20123;-68
2023/10/10 07:01:46;;;;;;;82.28;41.72;;;14.60;89.10;;;;;;5032301;28;20049;-67
2023/10/10 07:04:13;;;;;;;82.95;40.92;;;14.60;89.10;;;;;;5032928;28;20086;-67
2023/10/10 07:06:44;;;;;;;86.30;41.15;;;14.60;89.00;;;;;;5032555;28;20479;-68
2023/10/10 07:09:29;;;;;;;;;;;14.70;89.10;;;;;;5040439;28;20102;-67
2023/10/10 07:12:09;;;;;;;72.10;37.85;;;14.60;89.10;;;;;;5034820;28;19921;-67
2023/10/10 07:14:40;;;;;;;75.25;38.72;;;14.70;89.10;;;;;;5020009;28;20042;-68
2023/10/10 07:17:11;;;;;;;74.97;37.72;;;14.70;89.20;;;;;;5026693;28;20052;-67
2023/10/10 07:19:54;;;;;;;67.28;36.78;;;14.70;89.00;;;;;;5032198;28;20504;-67
2023/10/10 07:22:22;;;;;;;69.75;36.33;;;14.80;89.00;;;;;;5032875;28;20056;-67
2023/10/10 07:24:48;;;;;;;67.18;35.83;;;14.80;89.00;;;;;;5011179;28;20160;-67
2023/10/10 07:27:18;;;;;;;59.13;32.97;;;14.80;89.00;;;;;;5014660;28;20084;-67
2023/10/10 07:32:27;;;;;;;54.13;32.38;;;14.90;88.90;;;;;;5032154;28;20049;-68
2023/10/10 07:34:54;;;;;;;54.50;32.38;;;15.00;88.90;;;;;;5032773;28;20049;-68
2023/10/10 07:37:23;;;;;;;53.88;31.27;;;15.00;88.90;;;;;;5031201;28;20052;-67
2023/10/10 07:39:55;;;;;;;53.55;31.70;;;15.00;88.80;;;;;;4994599;28;20056;-67
2023/10/10 07:42:27;;;;;;;;;;;15.10;88.80;;;;;;5030465;28;20129;-67
2023/10/10 07:44:56;;;;;;;53.42;30.88;;;15.20;88.90;;;;;;5031765;28;19963;-67
2023/10/10 07:47:26;;;;;;;56.72;33.15;;;15.20;89.00;;;;;;5032120;28;20041;-67
2023/10/10 07:49:59;;;;;;;54.83;35.15;;;15.30;88.80;;;;;;5026149;28;20057;-67
2023/10/10 07:52:25;;;;;;;56.63;35.67;;;15.30;88.60;;;;;;5014101;28;20069;-67
2023/10/10 07:54:53;;;;;;;67.68;39.28;;;15.40;88.60;;;;;;5022097;28;20480;-66
2023/10/10 07:57:22;;;;;;;66.07;39.55;;;15.40;88.40;;;;;;5027363;28;20111;-67
2023/10/10 07:59:58;;;;;;;75.15;43.67;;;15.40;88.40;;;;;;5023547;28;20061;-68
2023/10/10 08:04:54;;;;;;;81.53;44.25;;;15.50;88.30;;;;;;5013685;28;20052;-68
2023/10/10 08:07:20;;;;;;;79.80;45.70;;;15.50;88.20;;;;;;5029000;28;20127;-67
2023/10/10 08:09:48;;;;;;;84.60;48.50;;;15.60;88.20;;;;;;5028483;28;20046;-67
2023/10/10 08:12:15;;;;;;;84.22;46.97;;;15.60;88.20;;;;;;5024801;28;20170;-67
2023/10/10 08:14:42;;;;;;;83.90;48.13;;;15.60;88.20;;;;;;5021492;28;20061;-67
2023/10/10 08:17:19;;;;;;;78.00;47.90;;;15.70;88.20;;;;;;5030491;28;20406;-67
2023/10/10 08:19:51;;;;;;;81.68;49.17;;;15.80;87.90;;;;;;5029493;28;20100;-66
2023/10/10 08:22:27;;;;;;;82.10;48.08;;;15.80;87.70;;;;;;5027753;28;20106;-67
2023/10/10 08:24:52;;;;;;;87.55;50.67;;;15.80;87.80;;;;;;5032867;28;20063;-66
2023/10/10 08:27:18;;;;;;;77.80;49.50;;;15.80;87.80;;;;;;5029550;28;20037;-67
2023/10/10 08:29:45;;;;;;;83.78;49.85;;;15.80;87.60;;;;;;5031310;28;20050;-68
2023/10/10 08:32:12;;;;;;;83.07;50.05;;;15.90;87.50;;;;;;5034276;28;20045;-67
2023/10/10 08:34:42;;;;;;;80.82;48.58;;;15.90;87.30;;;;;;5018640;28;20054;-67
2023/10/10 08:37:09;;;;;;;75.70;46.08;;;16.00;87.30;;;;;;5037130;28;20041;-67
2023/10/10 08:39:36;;;;;;;73.30;47.95;;;16.00;87.20;;;;;;5033662;28;20077;-68
2023/10/10 08:42:14;;;;;;;67.38;45.22;;;16.00;87.20;;;;;;5030413;28;20075;-67
2023/10/10 08:44:41;;;;;;;67.03;44.92;;;16.10;87.00;;;;;;5025014;28;20068;-68
2023/10/10 08:47:15;;;;;;;64.70;44.47;;;16.10;86.60;;;;;;5026449;28;20058;-65
2023/10/10 08:49:42;;;;;;;65.47;43.72;;;16.20;86.50;;;;;;5025202;28;20077;-68
2023/10/10 08:52:08;;;;;;;59.65;40.75;;;16.20;86.10;;;;;;5009339;28;20492;-67
2023/10/10 08:54:35;;;;;;;62.13;43.58;;;16.30;86.20;;;;;;5028050;28;20045;-67
2023/10/10 08:57:04;;;;;;;61.15;42.20;;;16.40;86.20;;;;;;5027396;28;20045;-68
2023/10/10 08:59:31;;;;;;;56.70;39.50;;;16.40;86.00;;;;;;5027354;28;20055;-67
2023/10/10 09:02:19;;;;;;;54.17;40.28;;;16.50;85.60;;;;;;5028715;28;20041;-67
2023/10/10 09:04:46;;;;;;;62.47;39.88;;;16.50;85.30;;;;;;5022876;28;20110;-67
2023/10/10 09:07:20;;;;;;;61.15;39.60;;;16.50;85.10;;;;;;5027964;28;20037;-68
2023/10/10 09:09:54;;;;;;;61.95;40.00;;;16.60;85.10;;;;;;5027002;28;20389;-67
2023/10/10 09:12:21;;;;;;;54.28;37.17;;;16.60;85.00;;;;;;5026499;28;20060;-67
2023/10/10 09:14:50;;;;;;;54.72;39.35;;;16.70;85.10;;;;;;5028260;28;20045;-68
2023/10/10 09:17:35;;;;;;;58.20;39.75;;;16.70;85.20;;;;;;5027608;28;20050;-67
2023/10/10 09:20:17;;;;;;;60.10;40.53;;;16.80;85.00;;;;;;5023161;28;20042;-67
2023/10/10 09:22:44;;;;;;;61.33;41.45;;;16.90;84.80;;;;;;5023288;28;20061;-68
2023/10/10 09:25:20;;;;;;;63.20;40.45;;;16.90;84.40;;;;;;5015675;28;20527;-68
2023/10/10 09:28:18;;;;;;;60.75;41.40;;;17.00;84.10;;;;;;5017346;28;20463;-68
2023/10/10 09:30:59;;;;;;;61.95;41.67;;;17.00;83.70;;;;;;4998344;28;20140;-68
2023/10/10 09:33:33;;;;;;;64.43;43.60;;;17.00;83.50;;;;;;5015412;28;20062;-68
2023/10/10 09:36:15;;;;;;;65.70;43.92;;;17.00;83.20;;;;;;5020249;28;20077;-67
2023/10/10 09:38:55;;;;;;;62.72;43.47;;;17.10;82.90;;;;;;5025940;28;20084;-66
2023/10/10 09:49:52;;;;;;;66.25;41.58;;;17.20;82.50;;;;;;5020874;28;20084;-68
2023/10/10 09:57:40;;;;;;;63.65;40.55;;;17.20;81.80;;;;;;5032718;28;20057;-68
2023/10/10 10:00:13;;;;;;;60.88;42.20;;;17.20;81.60;;;;;;5032705;28;20057;-67
2023/10/10 10:02:48;;;;;;;67.75;42.22;;;17.20;81.60;;;;;;5020706;28;20064;-66
2023/10/10 10:05:18;;;;;;;60.95;40.42;;;17.20;81.60;;;;;;5026593;28;20045;-67
2023/10/10 10:07:56;;;;;;;61.28;39.78;;;17.30;81.70;;;;;;5026856;28;20422;-67
2023/10/10 10:10:52;;;;;;;58.25;40.35;;;17.40;81.90;;;;;;5026733;28;20053;-67
2023/10/10 10:13:49;;;;;;;64.32;40.67;;;17.40;81.10;;;;;;5017357;28;20041;-68
2023/10/10 10:16:37;;;;;;;60.05;40.55;;;17.50;80.30;;;;;;5026737;28;20045;-68
2023/10/10 10:19:27;;;;;;;62.70;38.92;;;17.50;80.00;;;;;;5019641;28;20083;-67
2023/10/10 10:22:09;;;;;;;58.67;39.05;;;17.50;80.50;;;;;;5029035;28;20118;-67
2023/10/10 10:24:46;;;;;;;59.53;39.03;;;17.60;80.70;;;;;;5026057;28;20052;-67
2023/10/10 10:27:42;;;;;;;55.88;38.45;;;17.80;80.50;;;;;;5030478;28;20124;-66
2023/10/10 10:32:44;;;;;;;57.17;38.17;;;17.80;79.90;;;;;;5028214;28;20053;-68
2023/10/10 10:35:15;;;;;;;56.55;37.47;;;18.00;79.80;;;;;;5029571;28;20496;-68
2023/10/10 10:37:44;;;;;;;54.55;38.67;;;18.00;79.60;;;;;;5030432;28;20053;-67
2023/10/10 10:42:51;;;;;;;55.63;37.58;;;18.10;79.50;;;;;;5029636;28;20049;-67
2023/10/10 10:45:24;;;;;;;54.65;36.70;;;18.10;79.60;;;;;;5030345;28;20076;-67
2023/10/10 10:47:54;;;;;;;54.85;37.30;;;18.20;80.00;;;;;;5030042;28;20508;-68
2023/10/10 10:50:29;;;;;;;58.65;38.10;;;18.30;79.70;;;;;;5011735;28;20045;-67
2023/10/10 10:53:08;;;;;;;58.65;37.13;;;18.30;79.30;;;;;;5030586;28;20049;-67
2023/10/10 10:55:40;;;;;;;53.72;35.05;;;18.40;79.20;;;;;;5034685;28;20049;-68
2023/10/10 10:58:07;;;;;;;51.20;36.15;;;18.40;79.20;;;;;;5025072;28;20334;-67
2023/10/10 11:03:35;;;;;;;50.97;35.63;;;18.50;77.10;;;;;;5017285;28;20107;-68
2023/10/10 11:06:09;;;;;;;47.28;33.17;;;18.50;78.40;;;;;;5024380;28;20068;-67
2023/10/10 11:13:54;;;;;;;49.30;33.88;;;18.40;78.30;;;;;;5029297;28;20111;-69
2023/10/10 11:16:25;;;;;;;53.13;35.17;;;18.40;78.20;;;;;;5029822;28;20053;-67
2023/10/10 11:18:57;;;;;;;52.70;35.33;;;18.40;78.30;;;;;;5026184;28;20125;-68
2023/10/10 11:21:31;;;;;;;50.05;34.08;;;18.40;78.50;;;;;;5029551;28;20084;-68
2023/10/10 11:23:58;;;;;;;51.92;33.90;;;18.50;78.60;;;;;;5029552;28;20049;-68
2023/10/10 11:26:33;;;;;;;49.00;34.00;;;18.50;78.50;;;;;;5030020;28;20739;-67
2023/10/10 11:28:59;;;;;;;50.65;32.95;;;18.50;78.40;;;;;;5029394;28;20480;-68
2023/10/10 11:31:29;;;;;;;50.50;32.47;;;18.60;78.30;;;;;;5029088;28;20111;-67
2023/10/10 11:34:26;;;;;;;46.88;30.85;;;18.70;78.20;;;;;;5022388;28;20107;-67
2023/10/10 11:37:12;;;;;;;47.13;32.30;;;18.80;77.80;;;;;;5029237;28;20546;-68
2023/10/10 11:39:47;;;;;;;54.30;31.58;;;18.80;77.10;;;;;;5028080;28;20379;-67
2023/10/10 11:42:26;;;;;;;47.72;31.55;;;18.90;77.70;;;;;;5030736;28;20153;-67
2023/10/10 11:45:10;;;;;;;50.50;31.98;;;18.90;76.40;;;;;;5028297;28;20046;-67
2023/10/10 11:47:44;;;;;;;48.20;31.00;;;19.00;76.70;;;;;;5030029;28;20146;-68
2023/10/10 11:50:22;;;;;;;40.80;28.50;;;19.00;77.00;;;;;;5017834;28;20084;-67
2023/10/10 11:52:58;;;;;;;41.03;29.05;;;19.10;76.80;;;;;;5016689;28;20048;-68
2023/10/10 11:55:25;;;;;;;50.78;29.17;;;19.10;77.10;;;;;;5029575;28;20053;-68
2023/10/10 11:58:06;;;;;;;41.80;27.98;;;19.10;76.70;;;;;;5013958;28;20515;-68
2023/10/10 12:00:45;;;;;;;43.08;27.45;;;19.20;76.50;;;;;;5030146;28;20045;-68
2023/10/10 12:03:19;;;;;;;37.35;24.80;;;19.20;76.50;;;;;;5022542;28;20087;-68
2023/10/10 12:05:48;;;;;;;41.83;28.20;;;19.40;76.70;;;;;;5017253;28;20056;-65
2023/10/10 12:08:15;;;;;;;40.67;26.17;;;19.50;76.10;;;;;;5022880;28;20045;-67
2023/10/10 12:10:47;;;;;;;41.53;26.10;;;19.60;76.40;;;;;;5029004;28;20051;-68
2023/10/10 12:13:25;;;;;;;34.90;24.92;;;19.70;75.90;;;;;;5022872;28;20049;-68
2023/10/10 12:16:12;;;;;;;38.22;25.13;;;19.70;75.00;;;;;;5030846;28;20457;-67
2023/10/10 12:18:49;;;;;;;35.15;23.60;;;19.70;75.00;;;;;;5025083;28;20050;-68
2023/10/10 12:21:20;;;;;;;32.72;22.67;;;19.60;75.10;;;;;;5026650;28;20045;-68
2023/10/10 12:23:50;;;;;;;37.17;24.58;;;19.70;75.60;;;;;;5031675;28;20420;-68
2023/10/10 12:26:18;;;;;;;38.60;24.37;;;19.70;75.60;;;;;;5027915;28;20057;-68
2023/10/10 12:28:46;;;;;;;38.45;23.75;;;19.70;75.70;;;;;;5025975;28;20104;-68
2023/10/10 12:31:16;;;;;;;39.83;23.63;;;19.70;76.00;;;;;;5014278;28;20409;-68
2023/10/10 12:33:45;;;;;;;36.88;25.05;;;19.80;76.00;;;;;;5030745;28;20488;-68
2023/10/10 12:36:11;;;;;;;42.53;24.77;;;19.80;75.80;;;;;;5026294;28;20123;-68
2023/10/10 12:38:40;;;;;;;36.53;25.52;;;19.80;75.80;;;;;;5021964;28;20052;-68
2023/10/10 12:41:11;;;;;;;36.90;26.15;;;19.80;76.00;;;;;;5030564;28;20120;-68
2023/10/10 12:43:37;;;;;;;39.55;25.15;;;19.80;76.00;;;;;;5030359;28;20059;-68
2023/10/10 12:46:04;;;;;;;37.65;24.95;;;19.70;76.10;;;;;;5032784;28;20553;-67
2023/10/10 12:48:31;;;;;;;33.90;24.95;;;19.70;75.90;;;;;;5023334;28;20041;-67
2023/10/10 12:51:00;;;;;;;39.40;26.33;;;19.70;76.40;;;;;;5018820;28;20561;-67
2023/10/10 12:53:30;;;;;;;38.13;25.55;;;19.60;76.50;;;;;;5028702;28;20053;-67
2023/10/10 12:56:01;;;;;;;41.72;27.88;;;19.60;76.80;;;;;;5023186;28;20528;-66
2023/10/10 12:58:28;;;;;;;39.10;26.40;;;19.50;77.00;;;;;;5023338;28;20050;-67
2023/10/10 13:00:56;;;;;;;41.80;26.33;;;19.50;76.80;;;;;;5014885;28;20407;-67
2023/10/10 13:03:30;;;;;;;37.63;25.88;;;19.50;76.90;;;;;;5019309;28;20054;-67
2023/10/10 13:06:00;;;;;;;39.20;25.65;;;19.50;76.80;;;;;;5038301;28;20042;-67
2023/10/10 13:08:39;;;;;;;42.83;27.30;;;19.40;76.90;;;;;;5013204;28;20045;-68
2023/10/10 13:11:14;;;;;;;38.72;26.10;;;19.40;77.00;;;;;;5020271;28;20120;-68
2023/10/10 13:13:48;;;;;;;39.50;25.75;;;19.40;77.10;;;;;;5024289;28;20555;-67
2023/10/10 13:18:56;;;;;;;37.92;26.63;;;19.60;76.90;;;;;;5030452;28;20192;-67
2023/10/10 13:21:22;;;;;;;43.78;28.25;;;19.60;76.90;;;;;;5030315;28;20052;-66
2023/10/10 13:23:50;;;;;;;43.15;28.88;;;19.50;76.80;;;;;;5019623;28;20046;-67
2023/10/10 13:26:16;;;;;;;41.40;28.85;;;19.50;77.20;;;;;;5013913;28;20041;-66
2023/10/10 13:28:46;;;;;;;37.63;27.77;;;19.50;77.30;;;;;;5029967;28;20223;-67
2023/10/10 13:31:14;;;;;;;40.83;27.42;;;19.40;77.20;;;;;;5030366;28;20045;-68
2023/10/10 13:33:41;;;;;;;37.67;25.70;;;19.40;77.30;;;;;;5019329;28;20050;-66
2023/10/10 13:36:15;;;;;;;40.13;27.27;;;19.30;77.40;;;;;;5023090;28;20111;-67
2023/10/10 13:38:53;;;;;;;40.38;27.48;;;19.30;77.60;;;;;;5018026;28;20046;-67
2023/10/10 13:41:22;;;;;;;43.75;26.58;;;19.20;77.60;;;;;;5026916;28;20768;-67
2023/10/10 13:43:52;;;;;;;39.35;27.20;;;19.20;77.60;;;;;;5042919;28;20051;-67
2023/10/10 13:46:20;;;;;;;36.42;25.88;;;19.20;77.50;;;;;;5029768;28;20053;-67
2023/10/10 13:48:47;;;;;;;38.67;27.15;;;19.20;77.40;;;;;;5016801;28;20046;-67
2023/10/10 13:51:16;;;;;;;42.83;27.27;;;19.20;77.50;;;;;;5020698;28;20050;-69
2023/10/10 13:53:43;;;;;;;38.22;26.85;;;19.20;77.70;;;;;;5023622;28;20048;-67
2023/10/10 13:56:16;;;;;;;42.17;28.25;;;19.20;77.70;;;;;;5016447;28;20041;-65
2023/10/10 13:58:51;;;;;;;40.83;28.27;;;19.20;77.30;;;;;;5030280;28;20057;-67
2023/10/10 14:01:30;;;;;;;40.58;26.50;;;19.10;77.00;;;;;;5022944;28;20057;-67
2023/10/10 14:04:01;;;;;;;46.38;27.83;;;19.10;77.10;;;;;;5026342;28;20068;-66
2023/10/10 14:06:33;;;;;;;41.80;27.35;;;19.10;77.40;;;;;;5017750;28;20405;-66
2023/10/10 14:09:00;;;;;;;43.05;28.55;;;19.00;77.50;;;;;;4992988;28;20128;-67
2023/10/10 14:11:26;;;;;;;45.83;27.25;;;19.00;77.50;;;;;;5002010;28;20060;-68
2023/10/10 14:13:55;;;;;;;42.88;28.02;;;19.00;77.70;;;;;;5029990;28;20049;-67
2023/10/10 14:16:22;;;;;;;40.92;27.67;;;19.00;77.60;;;;;;5028084;28;20046;-67
2023/10/10 14:18:52;;;;;;;42.65;29.42;;;19.00;77.70;;;;;;5009590;28;20489;-67
2023/10/10 14:21:28;;;;;;;46.45;29.88;;;19.00;77.70;;;;;;5024237;28;20497;-67
2023/10/10 14:24:04;;;;;;;44.75;32.00;;;19.00;77.70;;;;;;5029635;28;20049;-67
2023/10/10 14:26:33;;;;;;;44.63;31.15;;;18.90;77.70;;;;;;5024064;28;20505;-67
2023/10/10 14:29:05;;;;;;;53.05;32.60;;;19.00;77.90;;;;;;5025520;28;20117;-67
2023/10/10 14:31:32;;;;;;;52.63;32.92;;;18.90;77.80;;;;;;5028979;28;20500;-67
2023/10/10 14:34:01;;;;;;;46.90;30.80;;;19.00;78.00;;;;;;5029947;28;20385;-68
2023/10/10 14:36:28;;;;;;;43.08;31.00;;;19.00;77.90;;;;;;5009127;28;20050;-68
2023/10/10 14:38:53;;;;;;;48.42;31.15;;;19.00;78.00;;;;;;5019330;28;20041;-67
2023/10/10 14:41:30;;;;;;;48.13;33.05;;;19.00;77.90;;;;;;5022079;28;20056;-67
2023/10/10 14:44:00;;;;;;;47.63;31.77;;;19.00;78.00;;;;;;5026915;28;20041;-68
2023/10/10 14:46:31;;;;;;;49.17;31.27;;;19.00;78.00;;;;;;5019119;28;20049;-67
2023/10/10 14:49:05;;;;;;;46.35;31.70;;;19.00;77.60;;;;;;5012969;28;20362;-67
2023/10/10 14:51:35;;;;;;;49.40;30.90;;;19.00;77.70;;;;;;5020570;28;20057;-67
2023/10/10 14:54:11;;;;;;;53.45;30.90;;;19.00;77.60;;;;;;5023732;28;20053;-67
2023/10/10 14:56:49;;;;;;;49.15;31.30;;;19.00;77.10;;;;;;5019960;28;20072;-67
2023/10/10 14:59:24;;;;;;;51.70;31.70;;;19.10;77.10;;;;;;5029096;28;20054;-67
2023/10/10 15:01:50;;;;;;;46.80;31.67;;;19.10;77.10;;;;;;5027905;28;20136;-66
2023/10/10 15:04:18;;;;;;;41.67;28.83;;;19.10;77.30;;;;;;5020146;28;20050;-67
2023/10/10 15:06:45;;;;;;;38.95;28.20;;;19.10;76.70;;;;;;5029718;28;20412;-67
2023/10/10 15:09:14;;;;;;;45.63;28.30;;;19.10;76.70;;;;;;5033364;28;20164;-67
2023/10/10 15:11:44;;;;;;;46.38;30.08;;;19.10;76.60;;;;;;5030951;28;20135;-67
2023/10/10 15:14:10;;;;;;;41.22;28.42;;;19.10;76.50;;;;;;5012588;28;20042;-67
2023/10/10 15:16:37;;;;;;;39.72;28.17;;;19.00;76.60;;;;;;4994845;28;20045;-67
2023/10/10 15:19:06;;;;;;;40.05;28.85;;;19.00;76.50;;;;;;5006060;28;20050;-67
2023/10/10 15:21:36;;;;;;;41.28;29.20;;;19.00;76.40;;;;;;5026435;28;20493;-67
2023/10/10 15:24:03;;;;;;;40.38;28.95;;;19.00;76.50;;;;;;5013024;28;20050;-67
2023/10/10 15:26:29;;;;;;;44.72;29.23;;;18.90;76.60;;;;;;5008833;28;20052;-67
2023/10/10 15:28:56;;;;;;;42.90;28.73;;;18.90;76.60;;;;;;5028664;28;20123;-67
2023/10/10 15:31:30;;;;;;;45.20;29.23;;;18.90;76.50;;;;;;5032381;28;20056;-67
2023/10/10 15:33:57;;;;;;;43.60;28.38;;;18.90;76.60;;;;;;5032180;28;20060;-67
2023/10/10 15:36:30;;;;;;;42.58;28.35;;;18.80;76.70;;;;;;5041428;28;20053;-67
2023/10/10 15:39:04;;;;;;;41.33;28.13;;;18.80;76.80;;;;;;5032285;28;20045;-66
2023/10/10 15:41:31;;;;;;;44.08;29.67;;;18.80;77.00;;;;;;5022487;28;20052;-67
2023/10/10 15:44:02;;;;;;;47.30;28.33;;;18.70;77.20;;;;;;5031188;28;20441;-67
2023/10/10 15:46:38;;;;;;;42.17;29.25;;;18.70;77.30;;;;;;5032496;28;20131;-67